createdAt,value
2023-02-11T00:00:00.742Z,-3.32
2023-02-11T00:05:02.769Z,-3.31
2023-02-11T00:10:07.978Z,-3.41
2023-02-11T00:15:10.544Z,-3.36
2023-02-11T00:20:12.390Z,-3.44
2023-02-11T00:25:13.992Z,-3.25
2023-02-11T00:30:16.638Z,-3.40
2023-02-11T00:35:18.354Z,-3.26
2023-02-11T00:40:20.184Z,-3.35
2023-02-11T00:45:21.885Z,-3.41
2023-02-11T00:50:24.019Z,-3.43
2023-02-11T00:55:25.810Z,-3.64
2023-02-11T01:00:28.025Z,-3.52
2023-02-11T01:05:29.854Z,-3.61
2023-02-11T01:10:31.816Z,-3.56
2023-02-11T01:15:33.998Z,-3.83
2023-02-11T01:20:35.755Z,-3.87
2023-02-11T01:25:37.411Z,-3.66
2023-02-11T01:30:39.454Z,-3.66
2023-02-11T01:35:41.457Z,-3.64
2023-02-11T01:41:04.115Z,-3.88
2023-02-11T01:46:23.774Z,-3.89
2023-02-11T01:51:31.285Z,-3.85
2023-02-11T01:56:53.505Z,-4.01
2023-02-11T02:02:02.077Z,-3.82
2023-02-11T02:07:10.357Z,-3.94
2023-02-11T02:12:12.127Z,-4.11
2023-02-11T02:17:29.528Z,-3.95
2023-02-11T02:23:03.955Z,-3.96
2023-02-11T02:28:32.770Z,-3.85
2023-02-11T02:33:42.473Z,-3.96
2023-02-11T02:38:51.043Z,-3.87
2023-02-11T02:43:53.547Z,-4.01
2023-02-11T02:48:56.368Z,-4.06
2023-02-11T02:53:57.945Z,-3.95
2023-02-11T02:59:15.778Z,-4.02
2023-02-11T03:04:21.030Z,-4.12
2023-02-11T03:09:32.536Z,-4.06
2023-02-11T03:14:36.501Z,-4.21
2023-02-11T03:19:44.550Z,-4.30
2023-02-11T03:24:46.967Z,-4.29
2023-02-11T03:30:14.879Z,-4.30
2023-02-11T03:35:38.307Z,-4.19
2023-02-11T03:40:43.724Z,-4.22
2023-02-11T03:45:48.507Z,-4.28
2023-02-11T03:50:52.864Z,-4.39
2023-02-11T03:55:57.394Z,-4.53
2023-02-11T04:00:59.182Z,-4.36
2023-02-11T04:06:00.921Z,-4.45
2023-02-11T04:11:02.613Z,-4.52
2023-02-11T04:16:04.433Z,-4.43
2023-02-11T04:21:06.202Z,-4.61
2023-02-11T04:26:07.853Z,-4.39
2023-02-11T04:31:10.876Z,-4.50
2023-02-11T04:36:12.991Z,-4.39
2023-02-11T04:41:14.648Z,-4.27
2023-02-11T04:46:16.376Z,-4.38
2023-02-11T04:51:18.071Z,-4.48
2023-02-11T04:56:19.836Z,-4.35
2023-02-11T05:01:21.754Z,-4.49
2023-02-11T05:06:23.425Z,-4.59
2023-02-11T05:11:26.081Z,-4.57
2023-02-11T05:16:28.207Z,-4.60
2023-02-11T05:21:29.863Z,-4.70
2023-02-11T05:26:32.498Z,-4.72
2023-02-11T05:31:34.209Z,-4.66
2023-02-11T05:36:36.021Z,-4.65
2023-02-11T05:41:38.364Z,-4.53
2023-02-11T05:46:40.095Z,-4.57
2023-02-11T05:51:41.899Z,-4.61
2023-02-11T05:56:44.963Z,-4.76
2023-02-11T06:01:46.750Z,-4.59
2023-02-11T06:06:48.386Z,-4.73
2023-02-11T06:11:50.126Z,-4.60
2023-02-11T06:16:51.878Z,-4.73
2023-02-11T06:21:53.568Z,-4.77
2023-02-11T06:26:55.353Z,-4.85
2023-02-11T06:31:57.140Z,-4.98
2023-02-11T06:36:58.996Z,-4.75
2023-02-11T06:42:00.665Z,-4.76
2023-02-11T06:47:02.432Z,-4.81
2023-02-11T06:52:04.334Z,-4.82
2023-02-11T06:57:06.052Z,-4.71
2023-02-11T07:02:10.391Z,-4.64
2023-02-11T07:07:12.116Z,-4.53
2023-02-11T07:12:14.016Z,-4.45
2023-02-11T07:17:16.047Z,-4.32
2023-02-11T07:22:17.729Z,-4.20
2023-02-11T07:27:19.402Z,-4.16
2023-02-11T07:32:21.905Z,-4.11
2023-02-11T07:37:23.615Z,-4.01
2023-02-11T07:42:25.333Z,-4.01
2023-02-11T07:47:27.180Z,-3.92
2023-02-11T07:52:31.725Z,-3.99
2023-02-11T07:57:33.463Z,-3.93
2023-02-11T08:02:36.118Z,-3.85
2023-02-11T08:07:37.935Z,-3.84
2023-02-11T08:12:39.631Z,-3.80
2023-02-11T08:17:41.343Z,-3.61
2023-02-11T08:22:43.054Z,-3.65
2023-02-11T08:27:44.825Z,-3.61
2023-02-11T08:32:46.634Z,-3.62
2023-02-11T08:37:48.325Z,-3.53
2023-02-11T08:42:50.037Z,-3.49
2023-02-11T08:47:52.858Z,-3.44
2023-02-11T08:52:54.512Z,-3.46
2023-02-11T08:57:56.910Z,-3.39
2023-02-11T09:02:58.646Z,-3.33
2023-02-11T09:08:00.373Z,-3.13
2023-02-11T09:13:02.445Z,-3.09
2023-02-11T09:18:05.431Z,-2.93
2023-02-11T09:23:07.327Z,-2.75
2023-02-11T09:28:09.773Z,-2.71
2023-02-11T09:33:11.491Z,-2.83
2023-02-11T09:38:13.219Z,-2.83
2023-02-11T09:43:17.909Z,-2.79
2023-02-11T09:48:22.546Z,-2.80
2023-02-11T09:53:30.108Z,-2.87
2023-02-11T09:58:35.666Z,-2.41
2023-02-11T10:04:19.572Z,-2.33
2023-02-11T10:09:24.034Z,-2.37
2023-02-11T10:14:34.089Z,-2.20
2023-02-11T10:20:04.698Z,-2.10
2023-02-11T10:25:24.508Z,-1.74
2023-02-11T10:30:32.990Z,-1.75
2023-02-11T10:35:34.757Z,-1.31
2023-02-11T10:40:36.432Z,-1.13
2023-02-11T10:45:43.083Z,-1.23
2023-02-11T10:50:45.009Z,-1.60
2023-02-11T10:56:07.542Z,-1.08
2023-02-11T11:01:23.527Z,-0.58
2023-02-11T11:06:32.774Z,-1.21
2023-02-11T11:11:51.406Z,-0.93
2023-02-11T11:16:54.629Z,-0.64
2023-02-11T11:21:56.796Z,-0.64
2023-02-11T11:27:01.856Z,-0.35
2023-02-11T11:32:11.678Z,-0.82
2023-02-11T11:37:20.508Z,0.65
2023-02-11T11:42:26.680Z,0.05
2023-02-11T11:47:41.217Z,0.14
2023-02-11T11:53:00.286Z,0.50
2023-02-11T11:58:02.209Z,1.02
2023-02-11T12:03:33.182Z,0.98
2023-02-11T12:09:01.790Z,1.48
2023-02-11T12:14:36.988Z,1.70
2023-02-11T12:20:20.041Z,1.37
2023-02-11T12:25:37.201Z,0.70
2023-02-11T12:30:38.927Z,0.74
2023-02-11T12:36:08.603Z,1.70
2023-02-11T12:41:47.732Z,1.26
2023-02-11T12:47:14.321Z,2.06
2023-02-11T12:52:47.722Z,2.34
2023-02-11T12:57:52.552Z,2.02
2023-02-11T13:02:57.797Z,1.98
2023-02-11T13:08:33.026Z,2.08
2023-02-11T13:13:47.558Z,2.82
2023-02-11T13:18:57.646Z,2.66
2023-02-11T13:24:12.591Z,2.22
2023-02-11T13:29:34.754Z,1.19
2023-02-11T13:34:42.271Z,1.93
2023-02-11T13:39:58.675Z,1.17
2023-02-11T13:45:02.438Z,1.08
2023-02-11T13:50:07.858Z,2.30
2023-02-11T13:55:23.463Z,1.42
2023-02-11T14:00:37.430Z,1.58
2023-02-11T14:06:26.723Z,1.94
2023-02-11T14:11:35.857Z,1.29
2023-02-11T14:17:04.361Z,1.77
2023-02-11T14:22:13.593Z,1.08
2023-02-11T14:27:29.754Z,0.75
2023-02-11T14:32:47.883Z,0.82
2023-02-11T14:37:58.777Z,0.98
2023-02-11T14:43:16.775Z,1.35
2023-02-11T14:48:22.826Z,2.17
2023-02-11T14:53:26.731Z,1.39
2023-02-11T14:58:33.258Z,2.00
2023-02-11T15:03:40.394Z,1.93
2023-02-11T15:08:55.284Z,1.96
2023-02-11T15:14:01.156Z,1.81
2023-02-11T15:19:08.044Z,1.72
2023-02-11T15:24:31.454Z,1.42
2023-02-11T15:29:45.175Z,1.70
2023-02-11T15:34:51.183Z,1.80
2023-02-11T15:39:56.296Z,1.53
2023-02-11T15:45:17.183Z,0.87
2023-02-11T15:50:22.961Z,0.48
2023-02-11T15:55:27.637Z,0.99
2023-02-11T16:00:37.623Z,0.43
2023-02-11T16:05:41.757Z,0.41
2023-02-11T16:10:58.880Z,0.31
2023-02-11T16:16:19.044Z,0.17
2023-02-11T16:21:22.718Z,0.55
2023-02-11T16:26:33.812Z,0.34
2023-02-11T16:31:42.097Z,0.11
2023-02-11T16:36:45.412Z,0.12
2023-02-11T16:41:48.327Z,0.71
2023-02-11T16:46:51.515Z,0.12
2023-02-11T16:52:01.527Z,0.16
2023-02-11T16:57:20.878Z,0.03
2023-02-11T17:02:29.121Z,0.04
2023-02-11T17:07:31.604Z,0.09
2023-02-11T17:12:35.983Z,0.29
2023-02-11T17:17:40.059Z,0.06
2023-02-11T17:22:42.384Z,-0.04
2023-02-11T17:27:45.723Z,-0.16
2023-02-11T17:32:53.264Z,-0.10
2023-02-11T17:37:55.871Z,-0.25
2023-02-11T17:42:58.030Z,-0.10
2023-02-11T17:48:02.279Z,-0.01
2023-02-11T17:53:07.822Z,-0.25
2023-02-11T17:58:11.720Z,-0.26
2023-02-11T18:03:15.619Z,-0.19
2023-02-11T18:08:18.346Z,-0.27
2023-02-11T18:13:21.244Z,-0.51
2023-02-11T18:18:24.092Z,-0.46
2023-02-11T18:23:27.026Z,-0.29
2023-02-11T18:28:29.854Z,-0.27
2023-02-11T18:33:32.648Z,-0.43
2023-02-11T18:38:38.754Z,-0.15
2023-02-11T18:43:43.814Z,-0.27
2023-02-11T18:48:46.819Z,-0.42
2023-02-11T18:53:51.464Z,-0.27
2023-02-11T18:58:58.957Z,-0.37
2023-02-11T19:04:04.864Z,-0.21
2023-02-11T19:09:11.870Z,-0.28
2023-02-11T19:14:18.094Z,-0.24
2023-02-11T19:19:24.516Z,-0.11
2023-02-11T19:24:28.777Z,-0.34
2023-02-11T19:29:35.936Z,-0.16
2023-02-11T19:34:42.032Z,-0.28
2023-02-11T19:39:45.006Z,-0.23
2023-02-11T19:44:47.844Z,-0.37
2023-02-11T19:49:50.900Z,-0.28
2023-02-11T19:54:55.903Z,-0.41
2023-02-11T19:59:59.557Z,-0.60
2023-02-11T20:05:02.474Z,-0.55
2023-02-11T20:10:07.460Z,-0.46
2023-02-11T20:15:11.026Z,-0.62
2023-02-11T20:20:13.799Z,-0.71
2023-02-11T20:25:17.169Z,-0.82
2023-02-11T20:30:20.042Z,-0.85
2023-02-11T20:35:22.529Z,-0.80
2023-02-11T20:40:25.538Z,-0.72
2023-02-11T20:45:28.311Z,-0.84
2023-02-11T20:50:32.059Z,-0.90
2023-02-11T20:55:39.835Z,-0.92
2023-02-11T21:00:42.603Z,-0.97
2023-02-11T21:05:45.391Z,-0.91
2023-02-11T21:10:50.320Z,-0.90
2023-02-11T21:15:58.495Z,-0.88
2023-02-11T21:21:02.182Z,-0.95
2023-02-11T21:26:04.538Z,-1.00
2023-02-11T21:31:07.131Z,-1.03
2023-02-11T21:36:11.052Z,-1.04
2023-02-11T21:41:13.796Z,-1.06
2023-02-11T21:46:19.463Z,-0.95
2023-02-11T21:51:26.596Z,-1.02
2023-02-11T21:56:31.133Z,-1.01
2023-02-11T22:01:35.724Z,-1.11
2023-02-11T22:06:41.519Z,-1.08
2023-02-11T22:11:43.684Z,-1.21
2023-02-11T22:16:46.588Z,-1.14
2023-02-11T22:21:48.358Z,-1.17
2023-02-11T22:26:51.349Z,-1.25
2023-02-11T22:31:53.178Z,-1.21
2023-02-11T22:36:55.148Z,-1.27
2023-02-11T22:41:57.580Z,-1.25
2023-02-11T22:46:59.218Z,-1.25
2023-02-11T22:52:00.947Z,-1.18
2023-02-11T22:57:02.690Z,-1.19
2023-02-11T23:02:04.493Z,-1.23
2023-02-11T23:07:06.226Z,-1.22
2023-02-11T23:12:07.927Z,-1.19
2023-02-11T23:17:09.621Z,-1.17
2023-02-11T23:22:11.333Z,-1.17
2023-02-11T23:27:13.709Z,-1.11
2023-02-11T23:32:15.518Z,-1.14
2023-02-11T23:37:17.232Z,-1.14
2023-02-11T23:42:18.895Z,-1.14
2023-02-11T23:47:20.514Z,-1.11
2023-02-11T23:52:22.223Z,-1.12
2023-02-11T23:57:23.895Z,-1.06
